Gallatin, Missouri
Current Conditions -  °F | °C
As of 1:35 PM on Monday 22 Dec 2014 (Local Time) from KGPH Reporting Station
Light Rain Light Rain  
Wind Chill: 43°   Ceiling: 400
Heat Index: 43°   Visibility: 2mi
Dew Point: 43°   Wind: 3mph
Humidity: 100%   Direction: 150°SSE
Pressure: 29.47"   Gusts: NA
Location:  39.91°N, 93.96°W
Report Text: KGPH 221935Z AUTO 15003KT 2SM -RA OVC004 06/06 A2947 RMK AO2
Loading
Personal Weather Stations






























Interactive Weather Map New forecast layout! Learn more

10-Day Weather Forecast

Advertisements
Track Severe Weather on mobile